Time;durP1;ratioP1;P1;durP2;ratioP2;P2;SDS_P1;SDS_P2;PMS_P1;PMS_P2;Temp;Humidity;BMP_temperature;BMP_pressure;BME280_temperature;BME280_humidity;BME280_pressure;Samples;Min_cycle;Max_cycle;Signal;HPM_P1;HPM_P2
2022/05/15 00:00:39;;;;;;;3.31;1.26;;;15.70;99.90;;;;;;172756;28;1161;-74
2022/05/15 00:00:45;;;;;;;1.71;1.24;;;15.70;99.90;;;;;;173148;28;1211;-73
2022/05/15 00:00:51;;;;;;;2.30;1.33;;;15.70;99.90;;;;;;172382;28;1466;-73
2022/05/15 00:01:00;;;;;;;2.42;1.30;;;15.70;99.90;;;;;;173663;28;1358;-73
2022/05/15 00:01:10;;;;;;;2.77;1.43;;;15.70;99.90;;;;;;172425;28;1362;-73
2022/05/15 00:01:19;;;;;;;2.81;1.39;;;15.80;99.90;;;;;;173655;28;2153;-73
2022/05/15 00:01:28;;;;;;;2.00;1.40;;;15.70;99.90;;;;;;173777;28;1249;-73
2022/05/15 00:01:34;;;;;;;1.84;1.29;;;15.70;99.90;;;;;;172086;28;1752;-73
2022/05/15 00:01:40;;;;;;;1.73;1.38;;;15.70;99.90;;;;;;172422;28;906;-73
2022/05/15 00:01:46;;;;;;;1.77;1.37;;;15.70;99.90;;;;;;172921;28;1284;-73
2022/05/15 00:01:53;;;;;;;1.83;1.30;;;15.70;99.90;;;;;;173162;28;1181;-74
2022/05/15 00:01:58;;;;;;;1.65;1.23;;;15.70;99.90;;;;;;173029;28;1009;-73
2022/05/15 00:02:10;;;;;;;1.65;1.27;;;15.70;99.90;;;;;;172264;28;1352;-74
2022/05/15 00:02:18;;;;;;;1.84;1.30;;;15.70;99.90;;;;;;172216;28;1428;-75
2022/05/15 00:02:24;;;;;;;2.20;1.36;;;15.70;99.90;;;;;;173050;28;1014;-73
2022/05/15 00:02:35;;;;;;;2.50;1.43;;;15.70;99.90;;;;;;172988;28;1193;-74
2022/05/15 00:02:41;;;;;;;2.56;1.39;;;15.70;99.90;;;;;;172927;28;1191;-74
2022/05/15 00:02:47;;;;;;;2.25;1.20;;;15.70;99.90;;;;;;173641;28;1198;-73
2022/05/15 00:02:53;;;;;;;2.55;1.20;;;15.70;99.90;;;;;;173603;28;1252;-73
2022/05/15 00:03:01;;;;;;;2.40;1.20;;;15.70;99.90;;;;;;172330;28;1342;-73
2022/05/15 00:03:17;;;;;;;2.60;1.10;;;15.70;99.90;;;;;;172809;28;1486;-73
2022/05/15 00:03:24;;;;;;;2.35;1.08;;;15.70;99.90;;;;;;173415;28;2220;-74
2022/05/15 00:03:30;;;;;;;1.78;0.95;;;15.70;99.90;;;;;;173175;28;1380;-73
2022/05/15 00:03:36;;;;;;;1.65;1.10;;;15.60;99.90;;;;;;172765;28;1419;-73
2022/05/15 00:03:48;;;;;;;1.77;1.15;;;15.60;99.90;;;;;;173011;28;850;-73
2022/05/15 00:03:54;;;;;;;2.10;1.36;;;15.60;99.90;;;;;;172740;28;1859;-73
2022/05/15 00:04:02;;;;;;;2.22;1.45;;;15.60;99.90;;;;;;173027;28;1009;-73
2022/05/15 00:04:10;;;;;;;2.43;1.35;;;15.60;99.90;;;;;;173099;28;1217;-73
2022/05/15 00:04:18;;;;;;;2.97;1.20;;;15.60;99.90;;;;;;173806;28;1400;-74
2022/05/15 00:04:26;;;;;;;3.05;1.17;;;15.60;99.90;;;;;;173547;28;1228;-73
2022/05/15 00:04:42;;;;;;;3.11;1.19;;;15.60;99.90;;;;;;173103;28;1044;-74
2022/05/15 00:04:49;;;;;;;2.96;1.30;;;15.60;99.90;;;;;;172995;28;1401;-73
2022/05/15 00:05:05;;;;;;;2.13;1.30;;;15.60;99.90;;;;;;173337;28;1504;-73
2022/05/15 00:05:11;;;;;;;2.36;1.29;;;15.60;99.90;;;;;;172689;28;1740;-73
2022/05/15 00:05:16;;;;;;;2.75;1.30;;;15.60;99.90;;;;;;173801;28;1443;-73
2022/05/15 00:05:22;;;;;;;2.70;1.30;;;15.60;99.90;;;;;;173572;28;1208;-74
2022/05/15 00:05:28;;;;;;;3.05;1.40;;;15.50;99.90;;;;;;173826;28;863;-73
2022/05/15 00:05:34;;;;;;;3.30;1.50;;;15.50;99.90;;;;;;172899;28;1358;-73
2022/05/15 00:05:41;;;;;;;3.10;1.40;;;15.50;99.90;;;;;;173125;28;800;-73
2022/05/15 00:06:14;;;;;;;3.33;1.40;;;15.50;99.90;;;;;;172275;28;1002;-73
2022/05/15 00:06:20;;;;;;;3.49;1.40;;;15.50;99.90;;;;;;170373;29;1453;-73
2022/05/15 00:06:26;;;;;;;3.88;1.45;;;15.50;99.90;;;;;;170390;28;1151;-73
2022/05/15 00:06:34;;;;;;;3.85;1.40;;;15.50;99.90;;;;;;170303;29;1296;-73
2022/05/15 00:06:40;;;;;;;6.13;1.60;;;15.50;99.90;;;;;;172960;28;1036;-74
2022/05/15 00:06:46;;;;;;;6.18;1.58;;;15.50;99.90;;;;;;172384;28;1255;-74
2022/05/15 00:06:54;;;;;;;6.03;1.60;;;15.50;99.90;;;;;;173087;28;1382;-74
2022/05/15 00:07:00;;;;;;;5.93;1.70;;;15.50;99.90;;;;;;172406;28;1462;-74
2022/05/15 00:07:07;;;;;;;3.80;1.55;;;15.50;99.90;;;;;;172222;28;1360;-73
2022/05/15 00:07:15;;;;;;;3.53;1.40;;;15.50;99.90;;;;;;172485;28;944;-74
2022/05/15 00:07:21;;;;;;;3.52;1.40;;;15.40;99.90;;;;;;172872;28;1362;-73
2022/05/15 00:07:29;;;;;;;3.33;1.25;;;15.40;99.90;;;;;;172479;28;921;-73
2022/05/15 00:07:36;;;;;;;3.23;1.10;;;15.40;99.90;;;;;;171380;28;1532;-74
2022/05/15 00:07:44;;;;;;;3.63;1.10;;;15.40;99.90;;;;;;171550;28;1455;-74
2022/05/15 00:07:49;;;;;;;3.65;1.02;;;15.40;99.90;;;;;;171560;28;1458;-74
2022/05/15 00:07:56;;;;;;;4.33;1.10;;;15.40;99.90;;;;;;172468;28;1419;-74
2022/05/15 00:08:02;;;;;;;4.20;1.20;;;15.40;99.90;;;;;;172312;28;1003;-74
2022/05/15 00:08:09;;;;;;;3.80;1.20;;;15.40;99.90;;;;;;172936;28;1736;-73
2022/05/15 00:08:15;;;;;;;3.98;1.32;;;15.40;99.90;;;;;;173320;28;1608;-74
2022/05/15 00:08:22;;;;;;;3.80;1.35;;;15.40;99.90;;;;;;175171;28;1959;-73
2022/05/15 00:08:34;;;;;;;3.33;1.27;;;15.40;99.90;;;;;;173614;28;1407;-73
2022/05/15 00:08:40;;;;;;;3.22;1.24;;;15.40;99.90;;;;;;173619;28;1526;-73
2022/05/15 00:08:46;;;;;;;3.05;1.33;;;15.40;99.90;;;;;;172402;28;1204;-74
2022/05/15 00:08:52;;;;;;;3.80;1.40;;;15.40;99.90;;;;;;172632;28;1861;-73
2022/05/15 00:08:58;;;;;;;4.28;1.48;;;15.40;99.90;;;;;;172889;28;1543;-73
2022/05/15 00:09:04;;;;;;;4.22;1.50;;;15.40;99.90;;;;;;174230;28;2026;-73
2022/05/15 00:09:12;;;;;;;4.03;1.45;;;15.30;99.90;;;;;;173526;28;1149;-74
2022/05/15 00:09:18;;;;;;;3.27;1.27;;;15.30;99.90;;;;;;174364;28;2191;-73
2022/05/15 00:09:24;;;;;;;1.90;1.20;;;15.30;99.90;;;;;;173040;28;1288;-74
2022/05/15 00:09:30;;;;;;;1.58;1.20;;;15.30;99.90;;;;;;172412;28;1018;-74
2022/05/15 00:09:36;;;;;;;2.05;1.20;;;15.30;99.90;;;;;;172226;28;1357;-73
2022/05/15 00:09:44;;;;;;;2.40;1.33;;;15.30;99.90;;;;;;172941;28;1336;-74
2022/05/15 00:09:53;;;;;;;2.87;1.45;;;15.30;99.90;;;;;;171875;28;1379;-73
2022/05/15 00:10:01;;;;;;;4.00;1.70;;;15.30;99.90;;;;;;172652;28;958;-73
2022/05/15 00:10:07;;;;;;;3.80;1.65;;;15.30;99.90;;;;;;173187;28;1021;-74
2022/05/15 00:10:13;;;;;;;3.35;1.52;;;15.30;99.90;;;;;;172206;28;1272;-73
2022/05/15 00:10:18;;;;;;;3.30;1.50;;;15.30;99.90;;;;;;172437;28;1207;-73
2022/05/15 00:10:27;;;;;;;2.38;1.30;;;15.30;99.90;;;;;;173056;28;1713;-74
2022/05/15 00:10:35;;;;;;;1.75;1.15;;;15.30;99.90;;;;;;173248;28;953;-73
2022/05/15 00:10:43;;;;;;;1.73;1.23;;;15.30;99.90;;;;;;172144;28;1383;-73
2022/05/15 00:10:51;;;;;;;1.75;1.17;;;15.30;99.90;;;;;;171672;28;1532;-74
2022/05/15 00:10:57;;;;;;;1.60;1.20;;;15.20;99.90;;;;;;172308;28;1465;-74
2022/05/15 00:11:05;;;;;;;1.88;1.22;;;15.20;99.90;;;;;;171632;28;1010;-72
2022/05/15 00:11:17;;;;;;;2.18;1.22;;;15.20;99.90;;;;;;172104;28;1324;-74
2022/05/15 00:11:22;;;;;;;2.85;1.30;;;15.20;99.90;;;;;;172085;28;1405;-73
2022/05/15 00:11:35;;;;;;;2.88;1.27;;;15.20;99.90;;;;;;172477;28;1339;-73
2022/05/15 00:11:41;;;;;;;2.60;1.20;;;15.20;99.90;;;;;;171762;28;1203;-73
2022/05/15 00:11:49;;;;;;;1.60;1.07;;;15.20;99.90;;;;;;171771;28;1473;-73
2022/05/15 00:11:55;;;;;;;1.41;0.97;;;15.20;99.90;;;;;;172429;28;1166;-74
2022/05/15 00:12:03;;;;;;;2.38;0.90;;;15.20;99.90;;;;;;172822;28;1399;-74
2022/05/15 00:12:09;;;;;;;2.36;0.94;;;15.20;99.90;;;;;;172400;28;1591;-73
2022/05/15 00:12:16;;;;;;;2.30;0.90;;;15.20;99.90;;;;;;173476;28;1452;-74
2022/05/15 00:12:22;;;;;;;2.42;1.00;;;15.20;99.90;;;;;;173829;28;1480;-74
2022/05/15 00:12:31;;;;;;;1.97;1.07;;;15.20;99.90;;;;;;173573;28;1238;-74
2022/05/15 00:12:39;;;;;;;1.57;1.00;;;15.20;99.90;;;;;;173136;28;1220;-73
2022/05/15 00:12:45;;;;;;;2.43;1.20;;;15.20;99.90;;;;;;172472;28;989;-73
2022/05/15 00:12:51;;;;;;;2.57;1.10;;;15.20;99.90;;;;;;172938;28;1274;-73
2022/05/15 00:12:59;;;;;;;3.15;1.20;;;15.20;99.90;;;;;;173779;28;1072;-74
2022/05/15 00:13:06;;;;;;;3.22;1.25;;;15.20;99.90;;;;;;173343;28;1939;-73
2022/05/15 00:13:11;;;;;;;2.97;1.30;;;15.20;99.90;;;;;;174247;28;1193;-73
2022/05/15 00:13:18;;;;;;;3.13;1.27;;;15.20;99.90;;;;;;173705;28;1081;-73
2022/05/15 00:13:26;;;;;;;3.60;1.33;;;15.20;99.90;;;;;;172285;28;2411;-73
2022/05/15 00:13:32;;;;;;;4.05;1.35;;;15.20;99.90;;;;;;173715;28;1040;-73
2022/05/15 00:13:42;;;;;;;4.33;1.43;;;15.20;99.90;;;;;;173003;28;992;-73
2022/05/15 00:13:57;;;;;;;4.19;1.42;;;15.20;99.90;;;;;;172693;28;1336;-74
2022/05/15 00:14:05;;;;;;;2.51;1.26;;;15.20;99.90;;;;;;173022;28;1215;-74
2022/05/15 00:14:17;;;;;;;1.65;1.20;;;15.20;99.90;;;;;;173315;28;1700;-73
2022/05/15 00:14:25;;;;;;;1.95;1.23;;;15.20;99.90;;;;;;173130;28;1228;-74
2022/05/15 00:14:32;;;;;;;2.60;1.30;;;15.20;99.90;;;;;;172987;28;1978;-73
2022/05/15 00:14:41;;;;;;;2.84;1.38;;;15.20;99.90;;;;;;172483;28;1314;-73
2022/05/15 00:14:49;;;;;;;2.56;1.30;;;15.20;99.90;;;;;;172811;28;1275;-74
2022/05/15 00:14:59;;;;;;;1.83;1.30;;;15.30;99.90;;;;;;172893;28;1411;-75
2022/05/15 00:15:11;;;;;;;1.50;1.27;;;15.30;99.90;;;;;;173310;28;1587;-73
2022/05/15 00:15:19;;;;;;;1.40;1.25;;;15.30;99.90;;;;;;172532;28;1238;-74
2022/05/15 00:15:30;;;;;;;1.87;1.47;;;15.30;99.90;;;;;;172391;28;1450;-74
2022/05/15 00:15:37;;;;;;;2.91;1.43;;;15.30;99.90;;;;;;172349;28;1220;-74
2022/05/15 00:15:43;;;;;;;3.50;1.40;;;15.30;99.90;;;;;;173079;28;1290;-74
2022/05/15 00:15:49;;;;;;;3.20;1.17;;;15.30;99.90;;;;;;172682;28;1453;-73
2022/05/15 00:16:07;;;;;;;3.07;1.13;;;15.30;99.90;;;;;;173089;28;1290;-74
2022/05/15 00:16:33;;;;;;;1.89;1.14;;;15.30;99.90;;;;;;172774;28;1569;-74
2022/05/15 00:16:42;;;;;;;1.96;1.26;;;15.20;99.90;;;;;;172910;28;1558;-74
2022/05/15 00:16:48;;;;;;;2.20;1.30;;;15.20;99.90;;;;;;172889;28;1527;-73
2022/05/15 00:16:56;;;;;;;1.90;1.30;;;15.20;99.90;;;;;;173640;28;1041;-74
2022/05/15 00:17:10;;;;;;;2.40;1.40;;;15.20;99.90;;;;;;173059;28;1495;-73
2022/05/15 00:17:21;;;;;;;2.15;1.27;;;15.20;99.90;;;;;;170978;28;2944;-74
2022/05/15 00:17:36;;;;;;;1.80;1.20;;;15.20;99.90;;;;;;171274;28;1259;-74
2022/05/15 00:17:47;;;;;;;2.66;1.25;;;15.20;99.90;;;;;;172343;28;1485;-74
2022/05/15 00:18:02;;;;;;;4.54;1.44;;;15.20;99.90;;;;;;172518;28;1211;-74
2022/05/15 00:18:11;;;;;;;4.07;1.38;;;15.20;99.90;;;;;;171809;28;1408;-73
2022/05/15 00:18:29;;;;;;;2.40;1.23;;;15.20;99.90;;;;;;171601;28;1468;-74
2022/05/15 00:18:38;;;;;;;2.49;1.13;;;15.20;99.90;;;;;;171650;28;1447;-74
2022/05/15 00:18:49;;;;;;;3.60;1.19;;;15.10;99.90;;;;;;171640;28;1223;-74
2022/05/15 00:18:58;;;;;;;4.77;1.27;;;15.20;99.90;;;;;;172184;28;1470;-75
2022/05/15 00:19:07;;;;;;;3.27;1.26;;;15.10;99.90;;;;;;172946;28;1847;-73
2022/05/15 00:19:13;;;;;;;2.99;1.27;;;15.10;99.90;;;;;;172847;28;1427;-74
2022/05/15 00:19:21;;;;;;;2.22;1.20;;;15.10;99.90;;;;;;172337;28;1314;-74
2022/05/15 00:19:27;;;;;;;1.57;1.18;;;15.10;99.90;;;;;;172377;28;1423;-74
2022/05/15 00:19:36;;;;;;;2.40;1.40;;;15.10;99.90;;;;;;172514;28;1522;-73
2022/05/15 00:19:43;;;;;;;2.33;1.30;;;15.10;99.90;;;;;;171768;28;1046;-74
2022/05/15 00:19:51;;;;;;;2.36;1.24;;;15.10;99.90;;;;;;172137;28;1418;-73
2022/05/15 00:19:57;;;;;;;1.77;1.20;;;15.10;99.90;;;;;;171524;28;1111;-74
2022/05/15 00:20:03;;;;;;;1.33;1.08;;;15.10;99.90;;;;;;172187;28;1294;-73
2022/05/15 00:20:12;;;;;;;1.17;1.07;;;15.10;99.90;;;;;;172360;28;1610;-74
2022/05/15 00:20:20;;;;;;;2.37;1.17;;;15.10;99.90;;;;;;171765;28;1064;-74
2022/05/15 00:20:32;;;;;;;3.57;1.20;;;15.10;99.90;;;;;;172610;28;1354;-74
2022/05/15 00:20:41;;;;;;;4.25;1.30;;;15.10;99.90;;;;;;172945;28;1560;-73
2022/05/15 00:20:49;;;;;;;4.83;1.40;;;15.10;99.90;;;;;;173234;28;1092;-74
2022/05/15 00:20:55;;;;;;;3.60;1.40;;;15.10;99.90;;;;;;173627;28;1185;-73
2022/05/15 00:21:03;;;;;;;3.40;1.45;;;15.10;99.90;;;;;;173822;28;883;-74
2022/05/15 00:21:13;;;;;;;3.22;1.40;;;15.10;99.90;;;;;;173540;28;1248;-73
2022/05/15 00:21:22;;;;;;;2.81;1.46;;;15.10;99.90;;;;;;173622;28;1235;-73
2022/05/15 00:21:30;;;;;;;3.80;1.40;;;15.10;99.90;;;;;;173600;28;1802;-73
2022/05/15 00:21:36;;;;;;;3.17;1.42;;;15.10;99.90;;;;;;173663;28;1327;-74
2022/05/15 00:21:46;;;;;;;4.40;1.40;;;15.10;99.90;;;;;;173802;28;1310;-74
2022/05/15 00:21:52;;;;;;;4.26;1.34;;;15.10;99.90;;;;;;172947;28;1186;-73
2022/05/15 00:22:00;;;;;;;3.60;1.33;;;15.10;99.90;;;;;;171688;28;970;-73
2022/05/15 00:22:15;;;;;;;3.63;1.37;;;15.10;99.90;;;;;;172435;28;1271;-74
2022/05/15 00:22:21;;;;;;;2.41;1.34;;;15.10;99.90;;;;;;172884;28;1272;-74
2022/05/15 00:22:27;;;;;;;2.47;1.50;;;15.10;99.90;;;;;;172597;28;1222;-74
2022/05/15 00:22:35;;;;;;;2.33;1.50;;;15.10;99.90;;;;;;172567;28;1003;-74
2022/05/15 00:22:41;;;;;;;2.27;1.50;;;15.10;99.90;;;;;;173056;28;1372;-73
2022/05/15 00:22:54;;;;;;;2.42;1.50;;;15.10;99.90;;;;;;172482;28;844;-73
2022/05/15 00:23:00;;;;;;;2.15;1.48;;;15.10;99.90;;;;;;173729;28;1445;-74
2022/05/15 00:23:11;;;;;;;2.10;1.50;;;15.10;99.90;;;;;;172785;28;1180;-74
2022/05/15 00:23:21;;;;;;;1.96;1.40;;;15.10;99.90;;;;;;173740;28;2757;-74
2022/05/15 00:23:27;;;;;;;1.57;1.24;;;15.10;99.90;;;;;;172351;28;1662;-74
2022/05/15 00:23:33;;;;;;;1.75;1.17;;;15.10;99.90;;;;;;173139;28;1680;-73
2022/05/15 00:23:38;;;;;;;1.70;1.10;;;15.10;99.90;;;;;;172351;28;1229;-73
2022/05/15 00:23:47;;;;;;;1.83;1.10;;;15.10;99.90;;;;;;172269;28;1212;-74
2022/05/15 00:23:53;;;;;;;2.57;1.21;;;15.10;99.90;;;;;;172911;28;1358;-74
2022/05/15 00:24:04;;;;;;;2.60;1.27;;;15.10;99.90;;;;;;172628;28;1210;-74
2022/05/15 00:24:13;;;;;;;2.60;1.33;;;15.10;99.90;;;;;;172885;28;2865;-73
2022/05/15 00:24:20;;;;;;;2.29;1.31;;;15.10;99.90;;;;;;172999;28;1385;-73
2022/05/15 00:24:28;;;;;;;2.27;1.27;;;15.10;99.90;;;;;;173273;28;854;-73
2022/05/15 00:24:40;;;;;;;2.50;1.20;;;15.10;99.90;;;;;;173893;28;911;-73
2022/05/15 00:24:49;;;;;;;2.54;1.26;;;15.10;99.90;;;;;;173065;28;1251;-74
2022/05/15 00:25:07;;;;;;;2.30;1.30;;;15.10;99.90;;;;;;172073;28;1239;-74
2022/05/15 00:25:18;;;;;;;2.53;1.34;;;15.10;99.90;;;;;;171549;28;1543;-74
2022/05/15 00:25:27;;;;;;;3.44;1.27;;;15.10;99.90;;;;;;171722;28;1456;-74
2022/05/15 00:25:36;;;;;;;2.90;1.23;;;15.10;99.90;;;;;;171461;28;1294;-73
2022/05/15 00:25:42;;;;;;;2.96;1.26;;;15.10;99.90;;;;;;173144;28;2637;-74
2022/05/15 00:25:48;;;;;;;2.60;1.23;;;15.10;99.90;;;;;;173374;28;1298;-74
2022/05/15 00:26:02;;;;;;;2.55;1.40;;;15.10;99.90;;;;;;174430;28;1540;-75
2022/05/15 00:26:11;;;;;;;2.95;1.42;;;15.10;99.90;;;;;;173015;28;1437;-73
2022/05/15 00:26:16;;;;;;;2.66;1.41;;;15.10;99.90;;;;;;173450;28;1466;-74
2022/05/15 00:26:23;;;;;;;2.22;1.27;;;15.10;99.90;;;;;;172457;28;1417;-72
2022/05/15 00:26:28;;;;;;;2.35;1.25;;;15.10;99.90;;;;;;172798;28;1152;-72
2022/05/15 00:26:37;;;;;;;3.42;1.30;;;15.10;99.90;;;;;;173846;28;951;-73
2022/05/15 00:26:46;;;;;;;4.27;1.40;;;15.10;99.90;;;;;;173000;28;1210;-74
2022/05/15 00:26:51;;;;;;;4.37;1.49;;;15.10;99.90;;;;;;172200;28;1323;-75
2022/05/15 00:26:57;;;;;;;4.43;1.48;;;15.10;99.90;;;;;;172390;28;1536;-74
2022/05/15 00:27:06;;;;;;;3.50;1.37;;;15.10;99.90;;;;;;172476;28;1021;-74
2022/05/15 00:27:12;;;;;;;2.77;1.23;;;15.00;99.90;;;;;;172493;28;1040;-74
2022/05/15 00:27:20;;;;;;;2.83;1.20;;;15.00;99.90;;;;;;171699;28;906;-73
2022/05/15 00:27:28;;;;;;;3.90;1.30;;;15.00;99.90;;;;;;172395;28;1220;-74
2022/05/15 00:27:39;;;;;;;2.97;1.30;;;15.00;99.90;;;;;;171574;28;1106;-73
2022/05/15 00:27:48;;;;;;;2.98;1.32;;;15.00;99.90;;;;;;172255;28;1198;-73
2022/05/15 00:27:59;;;;;;;3.10;1.30;;;15.00;99.90;;;;;;173787;28;1309;-74
2022/05/15 00:28:11;;;;;;;3.16;1.43;;;15.00;99.90;;;;;;174511;28;1514;-74
2022/05/15 00:28:17;;;;;;;3.61;1.48;;;15.00;99.90;;;;;;174493;28;1208;-74
2022/05/15 00:28:25;;;;;;;2.90;1.40;;;15.00;99.90;;;;;;173212;28;915;-73
2022/05/15 00:28:31;;;;;;;4.12;1.40;;;15.00;99.90;;;;;;171679;28;1389;-74
2022/05/15 00:28:37;;;;;;;6.07;1.40;;;15.00;99.90;;;;;;172367;28;1459;-73
2022/05/15 00:28:43;;;;;;;6.00;1.42;;;15.00;99.90;;;;;;171745;28;928;-73
2022/05/15 00:28:48;;;;;;;8.48;1.52;;;15.00;99.90;;;;;;172322;28;1292;-74
2022/05/15 00:28:57;;;;;;;8.57;1.63;;;15.00;99.90;;;;;;173468;28;970;-74
2022/05/15 00:29:03;;;;;;;6.84;1.64;;;15.00;99.90;;;;;;173058;28;1337;-73
2022/05/15 00:29:09;;;;;;;4.80;1.50;;;15.00;99.90;;;;;;172602;28;1406;-74
2022/05/15 00:29:24;;;;;;;4.07;1.45;;;15.00;99.90;;;;;;173725;28;1432;-74
2022/05/15 00:29:33;;;;;;;2.22;1.23;;;15.00;99.90;;;;;;173045;28;3069;-74
2022/05/15 00:29:56;;;;;;;;;;;;;;;;;;;;;
2022/05/15 00:30:08;;;;;;;2.42;1.38;;;15.00;99.90;;;;;;174294;28;1286;-74
2022/05/15 00:30:16;;;;;;;2.29;1.42;;;14.90;99.90;;;;;;173225;28;1402;-74
2022/05/15 00:30:22;;;;;;;1.97;1.33;;;14.90;99.90;;;;;;173238;28;970;-74
2022/05/15 00:30:37;;;;;;;1.92;1.38;;;14.90;99.90;;;;;;172879;28;1466;-74
2022/05/15 00:30:43;;;;;;;3.08;1.30;;;14.90;99.90;;;;;;172995;28;1520;-74
2022/05/15 00:30:53;;;;;;;3.87;1.27;;;14.90;99.90;;;;;;172535;28;1091;-74
2022/05/15 00:31:07;;;;;;;6.53;1.35;;;14.90;99.90;;;;;;173138;28;1121;-74
2022/05/15 00:31:21;;;;;;;5.94;1.41;;;14.90;99.90;;;;;;172863;28;1574;-73
2022/05/15 00:31:30;;;;;;;4.81;1.50;;;14.90;99.90;;;;;;173436;28;1663;-74
2022/05/15 00:31:38;;;;;;;3.57;1.50;;;14.90;99.90;;;;;;173008;28;1321;-75
2022/05/15 00:31:44;;;;;;;3.77;1.47;;;14.90;99.90;;;;;;171604;28;1604;-73
2022/05/15 00:31:59;;;;;;;;;;;;;;;;;;;;;
2022/05/15 00:32:06;;;;;;;2.89;1.36;;;14.90;99.90;;;;;;172676;28;1786;-74
2022/05/15 00:32:12;;;;;;;2.92;1.46;;;14.90;99.90;;;;;;171848;28;1023;-74
2022/05/15 00:32:24;;;;;;;3.40;1.50;;;14.90;99.90;;;;;;172778;28;1331;-73
2022/05/15 00:32:34;;;;;;;3.14;1.46;;;14.90;99.90;;;;;;173237;28;1479;-74
2022/05/15 00:32:40;;;;;;;2.57;1.36;;;14.90;99.90;;;;;;173592;28;1218;-73
2022/05/15 00:32:50;;;;;;;2.33;1.50;;;14.90;99.90;;;;;;173102;28;1322;-74
2022/05/15 00:33:08;;;;;;;;;;;;;;;;;;;;;
2022/05/15 00:33:21;;;;;;;2.13;1.41;;;14.90;99.90;;;;;;173109;28;1259;-74
2022/05/15 00:33:27;;;;;;;1.88;1.23;;;14.90;99.90;;;;;;172375;28;1924;-73
2022/05/15 00:33:38;;;;;;;2.10;1.35;;;14.90;99.90;;;;;;173560;28;1315;-73
2022/05/15 00:33:44;;;;;;;2.82;1.44;;;14.90;99.90;;;;;;173155;28;1184;-73
2022/05/15 00:33:51;;;;;;;2.70;1.48;;;14.90;99.90;;;;;;173068;28;1351;-73
2022/05/15 00:34:01;;;;;;;2.64;1.44;;;14.90;99.90;;;;;;172682;28;1912;-73
2022/05/15 00:34:16;;;;;;;2.17;1.34;;;14.90;99.90;;;;;;172860;28;1561;-74
2022/05/15 00:34:31;;;;;;;1.85;1.33;;;14.90;99.90;;;;;;172465;28;1306;-74
2022/05/15 00:34:36;;;;;;;2.03;1.29;;;14.90;99.90;;;;;;173165;28;1223;-74
2022/05/15 00:34:47;;;;;;;1.83;1.20;;;14.80;99.90;;;;;;172259;28;1480;-74
2022/05/15 00:34:55;;;;;;;2.27;1.27;;;14.80;99.90;;;;;;172207;28;1042;-74
2022/05/15 00:35:01;;;;;;;2.70;1.35;;;14.80;99.90;;;;;;171711;28;1227;-74
2022/05/15 00:35:08;;;;;;;2.90;1.30;;;14.80;99.90;;;;;;172386;28;1971;-73
2022/05/15 00:35:14;;;;;;;3.20;1.40;;;14.80;99.90;;;;;;173704;28;1452;-73
2022/05/15 00:35:23;;;;;;;3.10;1.30;;;14.80;99.90;;;;;;173646;28;1011;-74
2022/05/15 00:35:35;;;;;;;2.93;1.23;;;14.80;99.90;;;;;;172432;28;1419;-74
2022/05/15 00:35:46;;;;;;;2.88;1.30;;;14.80;99.90;;;;;;172273;28;2015;-75
2022/05/15 00:35:57;;;;;;;2.59;1.42;;;14.80;99.90;;;;;;172474;28;1225;-74
2022/05/15 00:36:04;;;;;;;2.71;1.60;;;14.80;99.90;;;;;;171644;28;1374;-74
2022/05/15 00:36:10;;;;;;;2.83;1.60;;;14.80;99.90;;;;;;172113;28;1529;-74
2022/05/15 00:36:16;;;;;;;2.58;1.50;;;14.80;99.90;;;;;;172645;28;1815;-74
2022/05/15 00:36:24;;;;;;;2.72;1.50;;;14.80;99.90;;;;;;172394;28;1384;-74
2022/05/15 00:36:34;;;;;;;2.58;1.32;;;14.80;99.90;;;;;;173044;28;1368;-74
2022/05/15 00:36:47;;;;;;;2.47;1.23;;;14.80;99.90;;;;;;172307;28;1250;-75
2022/05/15 00:36:53;;;;;;;2.51;1.30;;;14.80;99.90;;;;;;172629;28;1412;-73
2022/05/15 00:37:04;;;;;;;5.10;1.55;;;14.80;99.90;;;;;;171683;28;1308;-73
2022/05/15 00:37:15;;;;;;;5.12;1.50;;;14.80;99.90;;;;;;172154;28;2912;-74
2022/05/15 00:37:21;;;;;;;4.92;1.43;;;14.80;99.90;;;;;;172905;28;1220;-74
2022/05/15 00:37:27;;;;;;;2.30;1.20;;;14.80;99.90;;;;;;173703;28;1339;-74
2022/05/15 00:37:32;;;;;;;2.07;1.10;;;14.80;99.90;;;;;;173594;28;919;-74
2022/05/15 00:37:38;;;;;;;2.30;1.15;;;14.80;99.90;;;;;;171451;28;1496;-73
2022/05/15 00:37:44;;;;;;;2.40;1.15;;;14.80;99.90;;;;;;171261;28;1998;-74
2022/05/15 00:37:50;;;;;;;2.40;1.10;;;14.80;99.90;;;;;;172304;28;1679;-74
2022/05/15 00:37:56;;;;;;;2.95;1.20;;;14.80;99.90;;;;;;172543;28;871;-73
2022/05/15 00:38:08;;;;;;;3.30;1.27;;;14.80;99.90;;;;;;172122;28;1896;-74
2022/05/15 00:38:14;;;;;;;3.47;1.37;;;14.80;99.90;;;;;;173469;28;1236;-72
2022/05/15 00:38:21;;;;;;;3.30;1.32;;;14.70;99.90;;;;;;173066;28;1384;-73
2022/05/15 00:38:27;;;;;;;2.33;1.23;;;14.80;99.90;;;;;;173320;28;1173;-75
2022/05/15 00:38:40;;;;;;;2.30;1.25;;;14.80;99.90;;;;;;172360;28;1379;-74
2022/05/15 00:38:49;;;;;;;2.00;1.19;;;14.80;99.90;;;;;;171873;28;1215;-75
2022/05/15 00:39:00;;;;;;;2.00;1.28;;;14.70;99.90;;;;;;171491;28;1480;-73
2022/05/15 00:39:07;;;;;;;2.45;1.40;;;14.70;99.90;;;;;;171594;28;1425;-74
2022/05/15 00:39:13;;;;;;;2.43;1.40;;;14.80;99.90;;;;;;171697;28;1712;-74
2022/05/15 00:39:18;;;;;;;2.53;1.38;;;14.80;99.90;;;;;;171836;28;990;-75
2022/05/15 00:39:24;;;;;;;2.67;1.38;;;14.80;99.90;;;;;;173023;28;1100;-74
2022/05/15 00:39:30;;;;;;;2.97;1.45;;;14.80;99.90;;;;;;173118;28;1036;-72
2022/05/15 00:39:38;;;;;;;2.90;1.40;;;14.80;99.90;;;;;;173033;28;1081;-73
2022/05/15 00:39:44;;;;;;;4.46;1.39;;;14.80;99.90;;;;;;172975;28;1004;-73
2022/05/15 00:39:52;;;;;;;4.30;1.30;;;14.80;99.90;;;;;;172164;28;1242;-73
2022/05/15 00:39:58;;;;;;;4.06;1.26;;;14.80;99.90;;;;;;172698;28;1460;-73
2022/05/15 00:40:07;;;;;;;3.73;1.17;;;14.70;99.90;;;;;;172637;28;1921;-73
2022/05/15 00:40:15;;;;;;;1.77;1.20;;;14.70;99.90;;;;;;172387;28;1476;-73
2022/05/15 00:40:23;;;;;;;1.60;1.21;;;14.80;99.90;;;;;;171681;28;1457;-74
2022/05/15 00:40:29;;;;;;;2.42;1.20;;;14.80;99.90;;;;;;172238;28;1057;-73
2022/05/15 00:40:38;;;;;;;2.55;1.20;;;14.70;99.90;;;;;;172474;28;863;-74
2022/05/15 00:40:46;;;;;;;2.51;1.13;;;14.80;99.90;;;;;;173571;28;1390;-73
2022/05/15 00:40:56;;;;;;;2.84;1.20;;;14.70;99.90;;;;;;173111;28;1306;-74
2022/05/15 00:41:05;;;;;;;1.83;1.20;;;14.70;99.90;;;;;;172394;28;2211;-74
2022/05/15 00:41:17;;;;;;;2.02;1.22;;;14.70;99.90;;;;;;172491;28;1058;-74
2022/05/15 00:41:26;;;;;;;3.54;1.31;;;14.70;99.90;;;;;;173154;28;1333;-73
2022/05/15 00:41:33;;;;;;;3.93;1.30;;;14.70;99.90;;;;;;173019;28;1280;-74
2022/05/15 00:41:40;;;;;;;4.93;1.37;;;14.70;99.90;;;;;;172598;28;982;-73
2022/05/15 00:41:52;;;;;;;3.60;1.30;;;14.70;99.90;;;;;;172779;28;1292;-73
2022/05/15 00:42:10;;;;;;;3.79;1.30;;;14.70;99.90;;;;;;172356;28;1319;-73
2022/05/15 00:42:16;;;;;;;3.20;1.33;;;14.70;99.90;;;;;;172774;28;1410;-74
2022/05/15 00:42:27;;;;;;;3.42;1.38;;;14.70;99.90;;;;;;172623;28;1195;-74
2022/05/15 00:42:42;;;;;;;2.80;1.30;;;14.70;99.90;;;;;;172514;28;911;-75
2022/05/15 00:42:51;;;;;;;2.59;1.17;;;14.70;99.90;;;;;;171748;28;1604;-73
2022/05/15 00:42:57;;;;;;;2.11;1.00;;;14.70;99.90;;;;;;172348;28;1366;-74
2022/05/15 00:43:09;;;;;;;2.10;1.05;;;14.60;99.90;;;;;;171829;28;1009;-74
2022/05/15 00:43:56;;;;;;;1.90;1.14;;;14.60;99.90;;;;;;173274;28;1199;-73
2022/05/15 00:44:04;;;;;;;1.80;1.25;;;14.60;99.90;;;;;;170955;28;1219;-73
2022/05/15 00:44:11;;;;;;;2.80;1.18;;;14.60;99.90;;;;;;171075;28;1293;-73
2022/05/15 00:44:16;;;;;;;7.08;1.50;;;14.60;99.90;;;;;;171406;28;1787;-73
2022/05/15 00:44:23;;;;;;;7.82;1.63;;;14.60;99.90;;;;;;171762;28;1355;-74
2022/05/15 00:44:31;;;;;;;10.15;1.80;;;14.60;99.90;;;;;;171730;28;1399;-73
2022/05/15 00:44:40;;;;;;;11.02;1.77;;;14.60;99.90;;;;;;172436;28;990;-73
2022/05/15 00:44:45;;;;;;;6.30;1.43;;;14.60;99.90;;;;;;171967;28;824;-74
2022/05/15 00:44:52;;;;;;;6.00;1.40;;;14.60;99.90;;;;;;171865;28;975;-73
2022/05/15 00:45:01;;;;;;;4.54;1.20;;;14.60;99.90;;;;;;171724;28;1809;-73
2022/05/15 00:45:14;;;;;;;3.67;1.23;;;14.60;99.90;;;;;;172104;28;1418;-73
2022/05/15 00:45:28;;;;;;;4.20;1.20;;;14.50;99.90;;;;;;171359;28;1435;-74
2022/05/15 00:45:37;;;;;;;4.14;1.20;;;14.60;99.90;;;;;;171601;28;1464;-74
2022/05/15 00:45:45;;;;;;;2.67;1.20;;;14.60;99.90;;;;;;171051;28;1325;-74
2022/05/15 00:45:51;;;;;;;3.00;1.43;;;14.60;99.90;;;;;;171060;28;1239;-74
2022/05/15 00:45:57;;;;;;;4.00;1.50;;;14.60;99.90;;;;;;171046;28;1348;-74
2022/05/15 00:46:16;;;;;;;;;;;;;;;;;;;;;
2022/05/15 00:46:32;;;;;;;2.71;1.35;;;14.60;99.90;;;;;;171129;28;1833;-73
2022/05/15 00:46:46;;;;;;;1.50;1.09;;;14.50;99.90;;;;;;171184;28;1814;-73
2022/05/15 00:46:52;;;;;;;1.52;1.10;;;14.50;99.90;;;;;;171142;28;1238;-73
2022/05/15 00:47:07;;;;;;;1.95;1.20;;;14.50;99.90;;;;;;171818;28;1175;-74
2022/05/15 00:47:15;;;;;;;2.39;1.20;;;14.50;99.90;;;;;;171165;28;1225;-73
2022/05/15 00:47:35;;;;;;;;;;;;;;;;;;;;;
2022/05/15 00:47:41;;;;;;;2.76;1.26;;;14.50;99.90;;;;;;170491;29;1276;-74
2022/05/15 00:47:50;;;;;;;2.92;1.24;;;14.50;99.90;;;;;;172219;28;1530;-73